sensor_id;sensor_type;location;lat;lon;timestamp;P1;durP1;ratioP1;P2;durP2;ratioP2
59097;SDS011;44883;52.760;6.610;2022-12-10T00:01:37;35.97;;;12.82;;
59097;SDS011;44883;52.760;6.610;2022-12-10T00:04:03;34.78;;;15.07;;
59097;SDS011;44883;52.760;6.610;2022-12-10T00:06:30;39.58;;;16.25;;
59097;SDS011;44883;52.760;6.610;2022-12-10T00:08:59;39.30;;;16.67;;
59097;SDS011;44883;52.760;6.610;2022-12-10T00:11:26;39.92;;;17.63;;
59097;SDS011;44883;52.760;6.610;2022-12-10T00:13:52;39.40;;;17.17;;
59097;SDS011;44883;52.760;6.610;2022-12-10T00:16:19;37.08;;;17.02;;
59097;SDS011;44883;52.760;6.610;2022-12-10T00:18:46;43.45;;;17.20;;
59097;SDS011;44883;52.760;6.610;2022-12-10T00:21:13;36.63;;;17.73;;
59097;SDS011;44883;52.760;6.610;2022-12-10T00:23:41;44.92;;;19.45;;
59097;SDS011;44883;52.760;6.610;2022-12-10T00:26:17;42.92;;;16.15;;
59097;SDS011;44883;52.760;6.610;2022-12-10T00:28:45;37.97;;;15.82;;
59097;SDS011;44883;52.760;6.610;2022-12-10T00:31:12;38.38;;;16.35;;
59097;SDS011;44883;52.760;6.610;2022-12-10T00:36:09;32.75;;;15.05;;
59097;SDS011;44883;52.760;6.610;2022-12-10T00:38:37;32.00;;;15.23;;
59097;SDS011;44883;52.760;6.610;2022-12-10T00:41:04;41.33;;;17.48;;
59097;SDS011;44883;52.760;6.610;2022-12-10T00:43:30;38.22;;;17.13;;
59097;SDS011;44883;52.760;6.610;2022-12-10T00:45:56;41.03;;;17.10;;
59097;SDS011;44883;52.760;6.610;2022-12-10T00:48:22;39.35;;;16.67;;
59097;SDS011;44883;52.760;6.610;2022-12-10T00:50:55;45.15;;;17.83;;
59097;SDS011;44883;52.760;6.610;2022-12-10T00:53:32;43.45;;;18.42;;
59097;SDS011;44883;52.760;6.610;2022-12-10T00:55:59;44.35;;;17.52;;
59097;SDS011;44883;52.760;6.610;2022-12-10T00:58:29;39.88;;;16.30;;
59097;SDS011;44883;52.760;6.610;2022-12-10T01:01:09;42.55;;;17.58;;
59097;SDS011;44883;52.760;6.610;2022-12-10T01:03:43;39.38;;;16.17;;
59097;SDS011;44883;52.760;6.610;2022-12-10T01:06:13;38.88;;;17.92;;
59097;SDS011;44883;52.760;6.610;2022-12-10T01:08:42;43.55;;;16.77;;
59097;SDS011;44883;52.760;6.610;2022-12-10T01:11:09;40.42;;;18.17;;
59097;SDS011;44883;52.760;6.610;2022-12-10T01:13:36;46.42;;;18.48;;
59097;SDS011;44883;52.760;6.610;2022-12-10T01:16:03;47.13;;;18.40;;
59097;SDS011;44883;52.760;6.610;2022-12-10T01:18:30;38.60;;;17.00;;
59097;SDS011;44883;52.760;6.610;2022-12-10T01:21:00;40.60;;;17.17;;
59097;SDS011;44883;52.760;6.610;2022-12-10T01:23:33;45.72;;;18.80;;
59097;SDS011;44883;52.760;6.610;2022-12-10T01:26:00;41.60;;;17.70;;
59097;SDS011;44883;52.760;6.610;2022-12-10T01:28:31;38.20;;;17.33;;
59097;SDS011;44883;52.760;6.610;2022-12-10T01:31:05;45.47;;;17.92;;
59097;SDS011;44883;52.760;6.610;2022-12-10T01:33:38;38.42;;;17.08;;
59097;SDS011;44883;52.760;6.610;2022-12-10T01:36:06;39.97;;;15.52;;
59097;SDS011;44883;52.760;6.610;2022-12-10T01:38:34;36.78;;;14.88;;
59097;SDS011;44883;52.760;6.610;2022-12-10T01:41:00;44.92;;;17.58;;
59097;SDS011;44883;52.760;6.610;2022-12-10T01:43:27;46.25;;;19.27;;
59097;SDS011;44883;52.760;6.610;2022-12-10T01:45:54;43.45;;;17.67;;
59097;SDS011;44883;52.760;6.610;2022-12-10T01:48:20;40.03;;;17.02;;
59097;SDS011;44883;52.760;6.610;2022-12-10T01:50:45;37.85;;;16.80;;
59097;SDS011;44883;52.760;6.610;2022-12-10T01:53:11;36.53;;;16.70;;
59097;SDS011;44883;52.760;6.610;2022-12-10T01:58:13;39.25;;;17.77;;
59097;SDS011;44883;52.760;6.610;2022-12-10T02:00:43;36.65;;;15.40;;
59097;SDS011;44883;52.760;6.610;2022-12-10T02:03:20;44.05;;;17.35;;
59097;SDS011;44883;52.760;6.610;2022-12-10T02:05:59;41.97;;;19.17;;
59097;SDS011;44883;52.760;6.610;2022-12-10T02:08:56;44.33;;;18.55;;
59097;SDS011;44883;52.760;6.610;2022-12-10T02:11:29;43.10;;;19.55;;
59097;SDS011;44883;52.760;6.610;2022-12-10T02:14:03;41.13;;;19.58;;
59097;SDS011;44883;52.760;6.610;2022-12-10T02:16:54;41.38;;;18.23;;
59097;SDS011;44883;52.760;6.610;2022-12-10T02:19:26;44.33;;;19.25;;
59097;SDS011;44883;52.760;6.610;2022-12-10T02:21:58;42.00;;;16.80;;
59097;SDS011;44883;52.760;6.610;2022-12-10T02:24:27;41.67;;;17.90;;
59097;SDS011;44883;52.760;6.610;2022-12-10T02:26:58;41.72;;;16.58;;
59097;SDS011;44883;52.760;6.610;2022-12-10T02:29:36;38.03;;;17.27;;
59097;SDS011;44883;52.760;6.610;2022-12-10T02:32:07;40.50;;;16.33;;
59097;SDS011;44883;52.760;6.610;2022-12-10T02:34:40;48.08;;;18.35;;
59097;SDS011;44883;52.760;6.610;2022-12-10T02:37:12;41.92;;;16.50;;
59097;SDS011;44883;52.760;6.610;2022-12-10T02:39:43;37.60;;;16.42;;
59097;SDS011;44883;52.760;6.610;2022-12-10T02:42:13;43.38;;;18.38;;
59097;SDS011;44883;52.760;6.610;2022-12-10T02:44:41;45.50;;;19.00;;
59097;SDS011;44883;52.760;6.610;2022-12-10T02:47:09;45.78;;;19.80;;
59097;SDS011;44883;52.760;6.610;2022-12-10T02:49:36;45.00;;;18.52;;
59097;SDS011;44883;52.760;6.610;2022-12-10T02:52:09;44.92;;;18.10;;
59097;SDS011;44883;52.760;6.610;2022-12-10T02:59:54;47.58;;;19.17;;
59097;SDS011;44883;52.760;6.610;2022-12-10T03:02:34;40.80;;;16.77;;
59097;SDS011;44883;52.760;6.610;2022-12-10T03:08:08;52.25;;;20.63;;
59097;SDS011;44883;52.760;6.610;2022-12-10T03:13:28;42.42;;;18.67;;
59097;SDS011;44883;52.760;6.610;2022-12-10T03:15:59;43.42;;;18.70;;
59097;SDS011;44883;52.760;6.610;2022-12-10T03:18:26;43.55;;;17.48;;
59097;SDS011;44883;52.760;6.610;2022-12-10T03:20:54;47.42;;;20.65;;
59097;SDS011;44883;52.760;6.610;2022-12-10T03:23:26;37.00;;;15.52;;
59097;SDS011;44883;52.760;6.610;2022-12-10T03:25:54;44.78;;;18.40;;
59097;SDS011;44883;52.760;6.610;2022-12-10T03:28:19;39.50;;;15.05;;
59097;SDS011;44883;52.760;6.610;2022-12-10T03:30:47;54.15;;;21.05;;
59097;SDS011;44883;52.760;6.610;2022-12-10T03:33:15;36.33;;;16.38;;
59097;SDS011;44883;52.760;6.610;2022-12-10T03:35:41;38.33;;;17.88;;
59097;SDS011;44883;52.760;6.610;2022-12-10T03:38:08;48.40;;;20.48;;
59097;SDS011;44883;52.760;6.610;2022-12-10T03:40:34;45.75;;;20.17;;
59097;SDS011;44883;52.760;6.610;2022-12-10T03:43:00;46.83;;;19.20;;
59097;SDS011;44883;52.760;6.610;2022-12-10T03:45:26;49.55;;;19.83;;
59097;SDS011;44883;52.760;6.610;2022-12-10T03:47:51;44.60;;;19.95;;
59097;SDS011;44883;52.760;6.610;2022-12-10T03:50:17;50.70;;;20.95;;
59097;SDS011;44883;52.760;6.610;2022-12-10T03:52:43;49.55;;;20.58;;
59097;SDS011;44883;52.760;6.610;2022-12-10T03:55:08;47.55;;;20.52;;
59097;SDS011;44883;52.760;6.610;2022-12-10T03:57:34;57.78;;;22.00;;
59097;SDS011;44883;52.760;6.610;2022-12-10T04:00:02;49.63;;;21.77;;
59097;SDS011;44883;52.760;6.610;2022-12-10T04:02:29;50.33;;;19.58;;
59097;SDS011;44883;52.760;6.610;2022-12-10T04:04:55;32.65;;;14.52;;
59097;SDS011;44883;52.760;6.610;2022-12-10T04:07:21;44.42;;;18.73;;
59097;SDS011;44883;52.760;6.610;2022-12-10T04:09:46;43.85;;;19.35;;
59097;SDS011;44883;52.760;6.610;2022-12-10T04:12:12;46.15;;;18.85;;
59097;SDS011;44883;52.760;6.610;2022-12-10T04:14:38;48.00;;;20.80;;
59097;SDS011;44883;52.760;6.610;2022-12-10T04:17:22;45.30;;;19.00;;
59097;SDS011;44883;52.760;6.610;2022-12-10T04:19:47;46.17;;;19.05;;
59097;SDS011;44883;52.760;6.610;2022-12-10T04:22:13;46.13;;;16.15;;
59097;SDS011;44883;52.760;6.610;2022-12-10T04:24:57;52.20;;;19.35;;
59097;SDS011;44883;52.760;6.610;2022-12-10T04:27:41;42.58;;;18.20;;
59097;SDS011;44883;52.760;6.610;2022-12-10T04:30:08;50.63;;;20.00;;
59097;SDS011;44883;52.760;6.610;2022-12-10T04:32:36;47.63;;;19.73;;
59097;SDS011;44883;52.760;6.610;2022-12-10T04:35:01;37.53;;;15.45;;
59097;SDS011;44883;52.760;6.610;2022-12-10T04:37:27;47.22;;;19.13;;
59097;SDS011;44883;52.760;6.610;2022-12-10T04:39:53;49.13;;;21.40;;
59097;SDS011;44883;52.760;6.610;2022-12-10T04:42:19;38.55;;;17.73;;
59097;SDS011;44883;52.760;6.610;2022-12-10T04:44:45;49.58;;;19.55;;
59097;SDS011;44883;52.760;6.610;2022-12-10T04:47:11;50.95;;;21.25;;
59097;SDS011;44883;52.760;6.610;2022-12-10T04:49:38;39.55;;;17.23;;
59097;SDS011;44883;52.760;6.610;2022-12-10T04:52:04;52.10;;;20.15;;
59097;SDS011;44883;52.760;6.610;2022-12-10T04:54:31;51.28;;;20.83;;
59097;SDS011;44883;52.760;6.610;2022-12-10T04:56:57;51.78;;;21.52;;
59097;SDS011;44883;52.760;6.610;2022-12-10T04:59:23;56.78;;;21.10;;
59097;SDS011;44883;52.760;6.610;2022-12-10T05:01:49;44.67;;;17.52;;
59097;SDS011;44883;52.760;6.610;2022-12-10T05:04:16;44.75;;;16.77;;
59097;SDS011;44883;52.760;6.610;2022-12-10T05:06:42;38.75;;;15.55;;
59097;SDS011;44883;52.760;6.610;2022-12-10T05:09:10;40.25;;;16.83;;
59097;SDS011;44883;52.760;6.610;2022-12-10T05:11:36;42.92;;;17.83;;
59097;SDS011;44883;52.760;6.610;2022-12-10T05:14:02;34.38;;;14.15;;
59097;SDS011;44883;52.760;6.610;2022-12-10T05:16:28;35.20;;;15.68;;
59097;SDS011;44883;52.760;6.610;2022-12-10T05:18:56;30.98;;;13.38;;
59097;SDS011;44883;52.760;6.610;2022-12-10T05:21:22;42.20;;;18.10;;
59097;SDS011;44883;52.760;6.610;2022-12-10T05:24:10;31.42;;;13.90;;
59097;SDS011;44883;52.760;6.610;2022-12-10T05:26:35;39.80;;;14.82;;
59097;SDS011;44883;52.760;6.610;2022-12-10T05:29:01;38.60;;;17.58;;
59097;SDS011;44883;52.760;6.610;2022-12-10T05:31:27;41.28;;;17.35;;
59097;SDS011;44883;52.760;6.610;2022-12-10T05:33:54;37.28;;;16.17;;
59097;SDS011;44883;52.760;6.610;2022-12-10T05:36:22;43.33;;;17.13;;
59097;SDS011;44883;52.760;6.610;2022-12-10T05:38:50;27.20;;;13.27;;
59097;SDS011;44883;52.760;6.610;2022-12-10T05:41:17;38.85;;;15.73;;
59097;SDS011;44883;52.760;6.610;2022-12-10T05:43:44;46.60;;;16.88;;
59097;SDS011;44883;52.760;6.610;2022-12-10T05:46:16;39.17;;;16.42;;
59097;SDS011;44883;52.760;6.610;2022-12-10T05:48:43;36.20;;;13.98;;
59097;SDS011;44883;52.760;6.610;2022-12-10T05:51:14;32.70;;;16.02;;
59097;SDS011;44883;52.760;6.610;2022-12-10T05:53:42;44.97;;;17.30;;
59097;SDS011;44883;52.760;6.610;2022-12-10T05:56:12;39.20;;;16.48;;
59097;SDS011;44883;52.760;6.610;2022-12-10T05:58:41;40.25;;;16.30;;
59097;SDS011;44883;52.760;6.610;2022-12-10T06:01:09;42.53;;;17.60;;
59097;SDS011;44883;52.760;6.610;2022-12-10T06:03:38;36.33;;;16.08;;
59097;SDS011;44883;52.760;6.610;2022-12-10T06:06:04;46.55;;;19.10;;
59097;SDS011;44883;52.760;6.610;2022-12-10T06:08:30;45.33;;;17.23;;
59097;SDS011;44883;52.760;6.610;2022-12-10T06:10:56;45.80;;;18.17;;
59097;SDS011;44883;52.760;6.610;2022-12-10T06:13:26;34.78;;;15.00;;
59097;SDS011;44883;52.760;6.610;2022-12-10T06:15:51;43.83;;;16.55;;
59097;SDS011;44883;52.760;6.610;2022-12-10T06:18:17;41.78;;;16.55;;
59097;SDS011;44883;52.760;6.610;2022-12-10T06:20:43;45.38;;;19.65;;
59097;SDS011;44883;52.760;6.610;2022-12-10T06:23:08;51.60;;;20.33;;
59097;SDS011;44883;52.760;6.610;2022-12-10T06:25:37;49.92;;;19.48;;
59097;SDS011;44883;52.760;6.610;2022-12-10T06:28:03;49.65;;;20.48;;
59097;SDS011;44883;52.760;6.610;2022-12-10T06:30:29;50.95;;;19.38;;
59097;SDS011;44883;52.760;6.610;2022-12-10T06:32:54;40.85;;;16.20;;
59097;SDS011;44883;52.760;6.610;2022-12-10T06:35:20;34.85;;;16.77;;
59097;SDS011;44883;52.760;6.610;2022-12-10T06:37:46;47.28;;;20.42;;
59097;SDS011;44883;52.760;6.610;2022-12-10T06:40:11;45.58;;;17.80;;
59097;SDS011;44883;52.760;6.610;2022-12-10T06:42:37;33.88;;;13.20;;
59097;SDS011;44883;52.760;6.610;2022-12-10T06:45:03;36.22;;;16.40;;
59097;SDS011;44883;52.760;6.610;2022-12-10T06:47:29;31.35;;;12.80;;
59097;SDS011;44883;52.760;6.610;2022-12-10T06:49:54;43.63;;;16.38;;
59097;SDS011;44883;52.760;6.610;2022-12-10T06:52:20;50.33;;;19.10;;
59097;SDS011;44883;52.760;6.610;2022-12-10T06:54:46;43.97;;;19.92;;
59097;SDS011;44883;52.760;6.610;2022-12-10T06:57:11;48.35;;;20.02;;
59097;SDS011;44883;52.760;6.610;2022-12-10T06:59:37;44.13;;;17.80;;
59097;SDS011;44883;52.760;6.610;2022-12-10T07:02:03;52.15;;;21.48;;
59097;SDS011;44883;52.760;6.610;2022-12-10T07:04:28;53.85;;;22.55;;
59097;SDS011;44883;52.760;6.610;2022-12-10T07:06:54;47.17;;;19.02;;
59097;SDS011;44883;52.760;6.610;2022-12-10T07:09:20;52.47;;;21.85;;
59097;SDS011;44883;52.760;6.610;2022-12-10T07:11:45;53.88;;;20.13;;
59097;SDS011;44883;52.760;6.610;2022-12-10T07:14:12;55.00;;;20.63;;
59097;SDS011;44883;52.760;6.610;2022-12-10T07:16:40;37.83;;;16.75;;
59097;SDS011;44883;52.760;6.610;2022-12-10T07:19:08;49.40;;;20.02;;
59097;SDS011;44883;52.760;6.610;2022-12-10T07:21:36;49.38;;;20.20;;
59097;SDS011;44883;52.760;6.610;2022-12-10T07:24:03;58.00;;;21.83;;
59097;SDS011;44883;52.760;6.610;2022-12-10T07:26:35;52.80;;;19.70;;
59097;SDS011;44883;52.760;6.610;2022-12-10T07:29:03;49.72;;;21.35;;
59097;SDS011;44883;52.760;6.610;2022-12-10T07:31:31;51.88;;;20.33;;
59097;SDS011;44883;52.760;6.610;2022-12-10T07:33:57;45.42;;;18.15;;
59097;SDS011;44883;52.760;6.610;2022-12-10T07:36:23;46.45;;;20.55;;
59097;SDS011;44883;52.760;6.610;2022-12-10T07:38:50;47.88;;;20.75;;
59097;SDS011;44883;52.760;6.610;2022-12-10T07:41:16;50.65;;;21.05;;
59097;SDS011;44883;52.760;6.610;2022-12-10T07:43:42;48.10;;;20.67;;
59097;SDS011;44883;52.760;6.610;2022-12-10T07:46:13;53.80;;;22.30;;
59097;SDS011;44883;52.760;6.610;2022-12-10T07:48:41;46.08;;;18.60;;
59097;SDS011;44883;52.760;6.610;2022-12-10T07:51:08;45.03;;;17.13;;
59097;SDS011;44883;52.760;6.610;2022-12-10T07:53:33;45.85;;;19.80;;
59097;SDS011;44883;52.760;6.610;2022-12-10T07:55:59;47.35;;;18.45;;
59097;SDS011;44883;52.760;6.610;2022-12-10T07:58:26;43.88;;;17.73;;
59097;SDS011;44883;52.760;6.610;2022-12-10T08:00:51;46.45;;;19.08;;
59097;SDS011;44883;52.760;6.610;2022-12-10T08:03:17;44.58;;;19.10;;
59097;SDS011;44883;52.760;6.610;2022-12-10T08:05:43;48.92;;;19.02;;
59097;SDS011;44883;52.760;6.610;2022-12-10T08:08:08;53.00;;;20.20;;
59097;SDS011;44883;52.760;6.610;2022-12-10T08:10:34;56.55;;;21.23;;
59097;SDS011;44883;52.760;6.610;2022-12-10T08:13:01;49.90;;;20.75;;
59097;SDS011;44883;52.760;6.610;2022-12-10T08:15:27;46.72;;;18.90;;
59097;SDS011;44883;52.760;6.610;2022-12-10T08:17:55;50.67;;;19.45;;
59097;SDS011;44883;52.760;6.610;2022-12-10T08:20:22;55.75;;;21.13;;
59097;SDS011;44883;52.760;6.610;2022-12-10T08:22:48;55.30;;;21.75;;
59097;SDS011;44883;52.760;6.610;2022-12-10T08:25:14;43.53;;;18.42;;
59097;SDS011;44883;52.760;6.610;2022-12-10T08:27:40;52.90;;;19.73;;
59097;SDS011;44883;52.760;6.610;2022-12-10T08:30:06;41.38;;;16.70;;
59097;SDS011;44883;52.760;6.610;2022-12-10T08:32:32;52.90;;;21.23;;
59097;SDS011;44883;52.760;6.610;2022-12-10T08:34:58;47.88;;;17.23;;
59097;SDS011;44883;52.760;6.610;2022-12-10T08:37:23;49.03;;;18.40;;
59097;SDS011;44883;52.760;6.610;2022-12-10T08:39:49;52.88;;;20.88;;
59097;SDS011;44883;52.760;6.610;2022-12-10T08:42:15;56.95;;;21.95;;
59097;SDS011;44883;52.760;6.610;2022-12-10T08:44:40;54.40;;;24.27;;
59097;SDS011;44883;52.760;6.610;2022-12-10T08:47:06;60.78;;;23.05;;
59097;SDS011;44883;52.760;6.610;2022-12-10T08:49:32;53.72;;;21.17;;
59097;SDS011;44883;52.760;6.610;2022-12-10T08:51:57;55.78;;;22.73;;
59097;SDS011;44883;52.760;6.610;2022-12-10T08:54:23;53.20;;;21.80;;
59097;SDS011;44883;52.760;6.610;2022-12-10T08:56:49;49.85;;;19.70;;
59097;SDS011;44883;52.760;6.610;2022-12-10T08:59:15;55.70;;;22.13;;
59097;SDS011;44883;52.760;6.610;2022-12-10T09:01:40;48.78;;;19.42;;
59097;SDS011;44883;52.760;6.610;2022-12-10T09:04:06;53.22;;;21.58;;
59097;SDS011;44883;52.760;6.610;2022-12-10T09:06:31;56.03;;;23.38;;
59097;SDS011;44883;52.760;6.610;2022-12-10T09:08:57;47.38;;;19.30;;
59097;SDS011;44883;52.760;6.610;2022-12-10T09:11:24;53.00;;;21.50;;
59097;SDS011;44883;52.760;6.610;2022-12-10T09:13:52;54.00;;;21.00;;
59097;SDS011;44883;52.760;6.610;2022-12-10T09:16:18;47.55;;;20.08;;
59097;SDS011;44883;52.760;6.610;2022-12-10T09:18:44;45.17;;;18.08;;
59097;SDS011;44883;52.760;6.610;2022-12-10T09:21:11;53.60;;;21.73;;
59097;SDS011;44883;52.760;6.610;2022-12-10T09:23:40;42.63;;;18.52;;
59097;SDS011;44883;52.760;6.610;2022-12-10T09:26:07;51.22;;;19.42;;
59097;SDS011;44883;52.760;6.610;2022-12-10T09:28:34;43.60;;;17.35;;
59097;SDS011;44883;52.760;6.610;2022-12-10T09:31:01;52.33;;;20.85;;
59097;SDS011;44883;52.760;6.610;2022-12-10T09:33:29;53.22;;;23.30;;
59097;SDS011;44883;52.760;6.610;2022-12-10T09:35:55;51.15;;;22.17;;
59097;SDS011;44883;52.760;6.610;2022-12-10T09:38:21;55.70;;;22.45;;
59097;SDS011;44883;52.760;6.610;2022-12-10T09:48:45;51.70;;;19.30;;
59097;SDS011;44883;52.760;6.610;2022-12-10T09:51:25;52.63;;;21.50;;
59097;SDS011;44883;52.760;6.610;2022-12-10T09:53:54;51.42;;;21.42;;
59097;SDS011;44883;52.760;6.610;2022-12-10T09:56:42;51.80;;;22.37;;
59097;SDS011;44883;52.760;6.610;2022-12-10T09:59:15;48.35;;;20.80;;
59097;SDS011;44883;52.760;6.610;2022-12-10T10:01:56;55.13;;;20.75;;
59097;SDS011;44883;52.760;6.610;2022-12-10T10:04:45;47.40;;;19.73;;
59097;SDS011;44883;52.760;6.610;2022-12-10T10:07:15;49.75;;;18.90;;
59097;SDS011;44883;52.760;6.610;2022-12-10T10:09:55;48.08;;;20.35;;
59097;SDS011;44883;52.760;6.610;2022-12-10T10:12:26;38.40;;;16.60;;
59097;SDS011;44883;52.760;6.610;2022-12-10T10:14:52;48.83;;;19.25;;
59097;SDS011;44883;52.760;6.610;2022-12-10T10:17:19;51.22;;;21.17;;
59097;SDS011;44883;52.760;6.610;2022-12-10T10:19:52;51.72;;;19.92;;
59097;SDS011;44883;52.760;6.610;2022-12-10T10:22:18;46.40;;;19.33;;
59097;SDS011;44883;52.760;6.610;2022-12-10T10:24:44;50.38;;;21.58;;
59097;SDS011;44883;52.760;6.610;2022-12-10T10:27:15;46.38;;;20.95;;
59097;SDS011;44883;52.760;6.610;2022-12-10T10:29:44;50.60;;;21.23;;
59097;SDS011;44883;52.760;6.610;2022-12-10T10:34:40;54.60;;;22.70;;
59097;SDS011;44883;52.760;6.610;2022-12-10T10:37:05;49.70;;;21.00;;
59097;SDS011;44883;52.760;6.610;2022-12-10T10:39:36;51.92;;;22.35;;
59097;SDS011;44883;52.760;6.610;2022-12-10T10:42:07;48.78;;;18.27;;
59097;SDS011;44883;52.760;6.610;2022-12-10T10:44:35;56.53;;;22.13;;
59097;SDS011;44883;52.760;6.610;2022-12-10T10:47:02;47.97;;;20.95;;
59097;SDS011;44883;52.760;6.610;2022-12-10T10:49:55;51.58;;;20.52;;
59097;SDS011;44883;52.760;6.610;2022-12-10T10:52:21;57.65;;;22.80;;
59097;SDS011;44883;52.760;6.610;2022-12-10T10:54:47;49.42;;;21.25;;
59097;SDS011;44883;52.760;6.610;2022-12-10T10:57:21;53.60;;;21.67;;
59097;SDS011;44883;52.760;6.610;2022-12-10T11:02:56;53.28;;;22.58;;
59097;SDS011;44883;52.760;6.610;2022-12-10T11:05:23;54.78;;;22.00;;
59097;SDS011;44883;52.760;6.610;2022-12-10T11:07:58;59.08;;;21.58;;
59097;SDS011;44883;52.760;6.610;2022-12-10T11:10:26;55.63;;;23.27;;
59097;SDS011;44883;52.760;6.610;2022-12-10T11:15:39;55.33;;;22.70;;
59097;SDS011;44883;52.760;6.610;2022-12-10T11:18:25;51.78;;;20.98;;
59097;SDS011;44883;52.760;6.610;2022-12-10T11:21:05;52.38;;;18.20;;
59097;SDS011;44883;52.760;6.610;2022-12-10T11:23:42;56.85;;;20.85;;
59097;SDS011;44883;52.760;6.610;2022-12-10T11:29:23;54.88;;;22.52;;
59097;SDS011;44883;52.760;6.610;2022-12-10T11:45:57;43.33;;;18.25;;
59097;SDS011;44883;52.760;6.610;2022-12-10T11:48:34;50.05;;;20.30;;
59097;SDS011;44883;52.760;6.610;2022-12-10T11:51:28;56.95;;;23.90;;
59097;SDS011;44883;52.760;6.610;2022-12-10T11:54:33;42.08;;;17.45;;
59097;SDS011;44883;52.760;6.610;2022-12-10T11:57:28;48.75;;;21.35;;
59097;SDS011;44883;52.760;6.610;2022-12-10T12:00:21;51.08;;;20.77;;
59097;SDS011;44883;52.760;6.610;2022-12-10T12:08:54;49.38;;;19.77;;
59097;SDS011;44883;52.760;6.610;2022-12-10T12:17:02;51.03;;;21.45;;
59097;SDS011;44883;52.760;6.610;2022-12-10T12:19:40;51.50;;;19.75;;
59097;SDS011;44883;52.760;6.610;2022-12-10T12:22:30;53.60;;;20.92;;
59097;SDS011;44883;52.760;6.610;2022-12-10T12:25:02;55.83;;;22.48;;
59097;SDS011;44883;52.760;6.610;2022-12-10T12:27:36;58.70;;;24.63;;
59097;SDS011;44883;52.760;6.610;2022-12-10T12:32:54;52.05;;;20.38;;
59097;SDS011;44883;52.760;6.610;2022-12-10T12:38:30;59.53;;;23.90;;
59097;SDS011;44883;52.760;6.610;2022-12-10T12:41:10;55.80;;;24.23;;
59097;SDS011;44883;52.760;6.610;2022-12-10T12:50:11;63.72;;;26.45;;
59097;SDS011;44883;52.760;6.610;2022-12-10T12:52:48;66.40;;;27.80;;
59097;SDS011;44883;52.760;6.610;2022-12-10T12:58:45;58.67;;;24.50;;
59097;SDS011;44883;52.760;6.610;2022-12-10T13:01:08;64.95;;;24.92;;
59097;SDS011;44883;52.760;6.610;2022-12-10T13:03:41;69.93;;;24.48;;
59097;SDS011;44883;52.760;6.610;2022-12-10T13:06:12;63.50;;;23.98;;
59097;SDS011;44883;52.760;6.610;2022-12-10T13:12:27;60.47;;;25.35;;
59097;SDS011;44883;52.760;6.610;2022-12-10T13:14:31;58.17;;;21.25;;
59097;SDS011;44883;52.760;6.610;2022-12-10T13:19:28;53.60;;;21.98;;
59097;SDS011;44883;52.760;6.610;2022-12-10T13:21:59;55.22;;;21.02;;
59097;SDS011;44883;52.760;6.610;2022-12-10T13:24:43;57.70;;;20.08;;
59097;SDS011;44883;52.760;6.610;2022-12-10T13:35:15;83.72;;;38.70;;
59097;SDS011;44883;52.760;6.610;2022-12-10T13:37:34;74.30;;;30.40;;
59097;SDS011;44883;52.760;6.610;2022-12-10T13:42:33;58.80;;;22.65;;
59097;SDS011;44883;52.760;6.610;2022-12-10T13:47:46;58.80;;;22.10;;
59097;SDS011;44883;52.760;6.610;2022-12-10T13:50:20;51.90;;;19.80;;
59097;SDS011;44883;52.760;6.610;2022-12-10T13:55:46;52.67;;;20.98;;
59097;SDS011;44883;52.760;6.610;2022-12-10T14:06:41;76.28;;;32.42;;
59097;SDS011;44883;52.760;6.610;2022-12-10T14:14:27;59.20;;;25.13;;
59097;SDS011;44883;52.760;6.610;2022-12-10T14:17:05;53.97;;;22.65;;
59097;SDS011;44883;52.760;6.610;2022-12-10T14:19:37;55.88;;;25.92;;
59097;SDS011;44883;52.760;6.610;2022-12-10T14:22:04;51.05;;;21.42;;
59097;SDS011;44883;52.760;6.610;2022-12-10T14:24:35;44.88;;;17.23;;
59097;SDS011;44883;52.760;6.610;2022-12-10T14:27:20;43.78;;;16.48;;
59097;SDS011;44883;52.760;6.610;2022-12-10T14:30:00;42.75;;;16.35;;
59097;SDS011;44883;52.760;6.610;2022-12-10T14:32:32;44.70;;;17.40;;
59097;SDS011;44883;52.760;6.610;2022-12-10T14:35:00;54.05;;;21.35;;
59097;SDS011;44883;52.760;6.610;2022-12-10T14:37:29;47.00;;;17.73;;
59097;SDS011;44883;52.760;6.610;2022-12-10T14:39:58;46.75;;;18.10;;
59097;SDS011;44883;52.760;6.610;2022-12-10T14:42:24;54.33;;;21.27;;
59097;SDS011;44883;52.760;6.610;2022-12-10T14:45:00;60.95;;;21.23;;
59097;SDS011;44883;52.760;6.610;2022-12-10T14:47:35;54.63;;;19.63;;
59097;SDS011;44883;52.760;6.610;2022-12-10T14:50:03;55.92;;;21.58;;
59097;SDS011;44883;52.760;6.610;2022-12-10T14:52:32;58.25;;;21.65;;
59097;SDS011;44883;52.760;6.610;2022-12-10T14:55:00;55.95;;;20.17;;
59097;SDS011;44883;52.760;6.610;2022-12-10T15:00:06;53.78;;;18.98;;
59097;SDS011;44883;52.760;6.610;2022-12-10T15:02:33;45.75;;;16.95;;
59097;SDS011;44883;52.760;6.610;2022-12-10T15:05:03;43.50;;;17.73;;
59097;SDS011;44883;52.760;6.610;2022-12-10T15:07:36;50.88;;;19.17;;
59097;SDS011;44883;52.760;6.610;2022-12-10T15:10:13;52.20;;;20.42;;
59097;SDS011;44883;52.760;6.610;2022-12-10T15:12:47;51.90;;;20.25;;
59097;SDS011;44883;52.760;6.610;2022-12-10T15:18:00;46.78;;;18.25;;
59097;SDS011;44883;52.760;6.610;2022-12-10T15:25:47;50.22;;;20.20;;
59097;SDS011;44883;52.760;6.610;2022-12-10T15:30:51;44.33;;;17.95;;
59097;SDS011;44883;52.760;6.610;2022-12-10T15:33:29;57.40;;;20.27;;
59097;SDS011;44883;52.760;6.610;2022-12-10T15:35:58;56.67;;;19.08;;
59097;SDS011;44883;52.760;6.610;2022-12-10T15:38:25;46.85;;;17.92;;
59097;SDS011;44883;52.760;6.610;2022-12-10T15:40:56;50.67;;;19.15;;
59097;SDS011;44883;52.760;6.610;2022-12-10T15:43:49;53.17;;;21.83;;
59097;SDS011;44883;52.760;6.610;2022-12-10T15:46:22;45.92;;;17.75;;
59097;SDS011;44883;52.760;6.610;2022-12-10T15:48:48;46.20;;;19.55;;
59097;SDS011;44883;52.760;6.610;2022-12-10T15:51:13;47.50;;;17.02;;
59097;SDS011;44883;52.760;6.610;2022-12-10T15:53:39;48.58;;;17.80;;
59097;SDS011;44883;52.760;6.610;2022-12-10T15:56:05;57.90;;;19.27;;
59097;SDS011;44883;52.760;6.610;2022-12-10T15:58:31;45.85;;;17.92;;
59097;SDS011;44883;52.760;6.610;2022-12-10T16:00:56;71.38;;;29.13;;
59097;SDS011;44883;52.760;6.610;2022-12-10T16:03:22;58.05;;;22.92;;
59097;SDS011;44883;52.760;6.610;2022-12-10T16:05:52;53.22;;;23.27;;
59097;SDS011;44883;52.760;6.610;2022-12-10T16:08:21;55.65;;;20.40;;
59097;SDS011;44883;52.760;6.610;2022-12-10T16:10:51;54.88;;;19.90;;
59097;SDS011;44883;52.760;6.610;2022-12-10T16:13:30;43.30;;;17.13;;
59097;SDS011;44883;52.760;6.610;2022-12-10T16:16:05;59.15;;;20.48;;
59097;SDS011;44883;52.760;6.610;2022-12-10T16:18:34;40.60;;;16.35;;
59097;SDS011;44883;52.760;6.610;2022-12-10T16:21:03;47.78;;;17.90;;
59097;SDS011;44883;52.760;6.610;2022-12-10T16:23:30;47.03;;;18.95;;
59097;SDS011;44883;52.760;6.610;2022-12-10T16:25:56;56.40;;;19.38;;
59097;SDS011;44883;52.760;6.610;2022-12-10T16:28:23;45.80;;;17.13;;
59097;SDS011;44883;52.760;6.610;2022-12-10T16:33:18;50.40;;;18.25;;
59097;SDS011;44883;52.760;6.610;2022-12-10T16:35:48;74.43;;;30.15;;
59097;SDS011;44883;52.760;6.610;2022-12-10T16:38:15;52.55;;;20.50;;
59097;SDS011;44883;52.760;6.610;2022-12-10T16:40:42;49.40;;;16.80;;
59097;SDS011;44883;52.760;6.610;2022-12-10T16:43:16;46.75;;;17.35;;